Salisbury, Illinois
Current Conditions -  °F | °C
As of 12:29 PM on Monday 26 Jan 2015 (Local Time) from KSPI Reporting Station
Light Snow Light Snow  
Wind Chill: 22°   Ceiling: 1500
Heat Index: 29°   Visibility: 1.2mi
Dew Point: 26°   Wind: 7mph
Humidity: 89%   Direction: 180°S
Pressure: 29.93"   Gusts: NA
Location:  39.8458°N, 89.8743°W
Report Text: KSPI 261829Z 18006KT 1 1/4SM R04/6000VP6000FT -SN BR BKN015 BKN022 M02/M03 A2993 RMK AO2 P0003 T10171033
Loading
Personal Weather Stations






























Interactive Weather Map New forecast layout! Learn more

10-Day Weather Forecast

Advertisements
Track Severe Weather on mobile